Time;durP1;ratioP1;P1;durP2;ratioP2;P2;SDS_P1;SDS_P2;PMS_P1;PMS_P2;Temp;Humidity;BMP_temperature;BMP_pressure;BME280_temperature;BME280_humidity;BME280_pressure;Samples;Min_cycle;Max_cycle;Signal;HPM_P1;HPM_P2
2022/03/11 00:01:30;;;;;;;;;;;14.30;49.40;;;;;;5074907;28;19924;-70
2022/03/11 00:03:56;;;;;;;;;;;14.30;49.40;;;;;;5074323;28;20457;-71
2022/03/11 00:06:23;;;;;;;;;;;14.20;49.40;;;;;;5074406;28;20292;-70
2022/03/11 00:08:50;;;;;;;;;;;14.20;49.60;;;;;;5073898;28;19931;-70
2022/03/11 00:11:17;;;;;;;;;;;14.20;49.60;;;;;;5074710;28;19998;-69
2022/03/11 00:13:45;;;;;;;;;;;14.20;49.60;;;;;;5074441;28;19931;-70
2022/03/11 00:16:11;;;;;;;;;;;14.20;49.60;;;;;;5092570;28;19924;-70
2022/03/11 00:18:38;;;;;;;;;;;14.20;49.60;;;;;;5092550;28;19924;-70
2022/03/11 00:21:05;;;;;;;;;;;14.10;49.60;;;;;;5092381;28;20582;-71
2022/03/11 00:23:32;;;;;;;;;;;14.20;49.60;;;;;;5092190;28;19924;-71
2022/03/11 00:25:59;;;;;;;;;;;14.10;49.60;;;;;;5092684;28;19924;-70
2022/03/11 00:28:25;;;;;;;;;;;14.20;49.60;;;;;;5074260;28;19924;-70
2022/03/11 00:30:53;;;;;;;;;;;14.10;49.60;;;;;;5074599;28;19924;-71
2022/03/11 00:33:20;;;;;;;;;;;14.10;49.60;;;;;;5074256;28;19931;-71
2022/03/11 00:35:46;;;;;;;;;;;14.00;49.60;;;;;;5074034;28;19964;-70
2022/03/11 00:38:13;;;;;;;;;;;14.00;49.60;;;;;;5092326;28;19924;-71
2022/03/11 00:40:40;;;;;;;;;;;14.50;50.00;;;;;;5074167;28;19930;-70
2022/03/11 00:43:06;;;;;;;;;;;14.00;49.60;;;;;;5074153;28;20377;-69
2022/03/11 00:45:33;;;;;;;;;;;14.00;49.70;;;;;;5092536;28;20291;-71
2022/03/11 00:48:00;;;;;;;;;;;14.00;49.70;;;;;;5092515;28;20003;-71
2022/03/11 00:50:27;;;;;;;;;;;13.90;49.60;;;;;;5096513;28;19930;-70
2022/03/11 00:52:54;;;;;;;;;;;13.90;49.70;;;;;;5096393;28;19930;-70
2022/03/11 00:55:20;;;;;;;;;;;13.90;49.70;;;;;;5078139;28;19928;-70
2022/03/11 00:57:47;;;;;;;;;;;13.90;49.70;;;;;;5078177;28;19924;-70
2022/03/11 01:00:14;;;;;;;;;;;13.90;49.70;;;;;;5096609;28;19924;-70
2022/03/11 01:02:40;;;;;;;;;;;13.90;49.70;;;;;;5077951;28;19934;-70
2022/03/11 01:05:09;;;;;;;;;;;13.90;49.70;;;;;;5077926;28;20287;-71
2022/03/11 01:07:35;;;;;;;;;;;13.80;49.70;;;;;;5078179;28;19924;-70
2022/03/11 01:10:02;;;;;;;;;;;13.90;49.70;;;;;;5095901;28;19924;-70
2022/03/11 01:12:28;;;;;;;;;;;13.80;49.70;;;;;;5077742;28;20398;-70
2022/03/11 01:14:55;;;;;;;;;;;13.90;49.70;;;;;;5095993;28;19971;-70
2022/03/11 01:17:22;;;;;;;;;;;13.80;49.70;;;;;;5095938;28;19924;-70
2022/03/11 01:19:48;;;;;;;;;;;14.30;50.00;;;;;;5077806;28;19931;-71
2022/03/11 01:22:17;;;;;;;;;;;13.80;49.60;;;;;;5077757;28;19924;-71
2022/03/11 01:24:43;;;;;;;;;;;13.80;49.70;;;;;;5095874;28;19930;-70
2022/03/11 01:27:10;;;;;;;;;;;13.80;49.70;;;;;;5077677;28;20368;-70
2022/03/11 01:29:37;;;;;;;;;;;13.80;49.70;;;;;;5095496;28;19931;-70
2022/03/11 01:32:04;;;;;;;;;;;13.80;49.70;;;;;;5077671;28;19924;-70
2022/03/11 01:34:30;;;;;;;;;;;13.80;49.70;;;;;;5077311;28;19986;-71
2022/03/11 01:36:57;;;;;;;;;;;13.80;49.70;;;;;;5077710;28;19924;-70
2022/03/11 01:39:25;;;;;;;;;;;13.90;49.70;;;;;;5095481;28;20402;-71
2022/03/11 01:41:52;;;;;;;;;;;13.80;49.70;;;;;;5095440;28;20281;-70
2022/03/11 01:44:18;;;;;;;;;;;14.10;49.90;;;;;;5095013;28;19939;-70
2022/03/11 01:46:45;;;;;;;;;;;13.70;49.70;;;;;;5095376;28;20373;-70
2022/03/11 01:49:11;;;;;;;;;;;13.90;49.70;;;;;;5077133;28;20292;-70
2022/03/11 01:51:39;;;;;;;;;;;14.10;49.80;;;;;;5095289;28;20434;-71
2022/03/11 01:54:05;;;;;;;;;;;13.70;49.70;;;;;;5076894;28;19984;-70
2022/03/11 01:56:33;;;;;;;;;;;13.70;49.70;;;;;;5077294;28;19924;-70
2022/03/11 01:59:00;;;;;;;;;;;13.70;49.70;;;;;;5095071;28;19924;-70
2022/03/11 02:01:26;;;;;;;;;;;13.70;49.70;;;;;;5058999;28;19924;-70
2022/03/11 02:03:53;;;;;;;;;;;13.70;49.70;;;;;;5076572;28;19928;-71
2022/03/11 02:06:20;;;;;;;;;;;13.70;49.70;;;;;;5077115;28;19928;-70
2022/03/11 02:08:46;;;;;;;;;;;14.10;49.90;;;;;;5077264;28;20292;-70
2022/03/11 02:11:13;;;;;;;;;;;13.70;49.70;;;;;;5094912;28;19925;-70
2022/03/11 02:13:44;;;;;;;;;;;13.70;49.70;;;;;;5094669;28;19924;-71
2022/03/11 02:16:12;;;;;;;;;;;13.70;49.70;;;;;;5076027;28;19993;-70
2022/03/11 02:18:38;;;;;;;;;;;13.70;49.70;;;;;;5077050;28;19934;-71
2022/03/11 02:21:05;;;;;;;;;;;13.70;49.60;;;;;;5076844;28;19934;-70
2022/03/11 02:23:36;;;;;;;;;;;13.70;49.60;;;;;;5094366;28;19943;-70
2022/03/11 02:26:03;;;;;;;;;;;13.70;49.60;;;;;;5076879;28;20291;-70
2022/03/11 02:28:33;;;;;;;;;;;13.70;49.60;;;;;;5076895;28;20020;-70
2022/03/11 02:31:00;;;;;;;;;;;13.70;49.60;;;;;;5094179;28;19924;-70
2022/03/11 02:33:26;;;;;;;;;;;13.80;49.70;;;;;;5076403;28;19930;-70
2022/03/11 02:35:53;;;;;;;;;;;13.80;49.60;;;;;;5094344;28;19953;-70
2022/03/11 02:38:19;;;;;;;;;;;14.10;49.80;;;;;;5076618;28;19924;-70
2022/03/11 02:40:47;;;;;;;;;;;13.80;49.60;;;;;;5094116;28;19931;-71
2022/03/11 02:43:14;;;;;;;;;;;13.80;49.60;;;;;;5076132;28;19924;-70
2022/03/11 02:45:40;;;;;;;;;;;13.80;49.60;;;;;;5076359;28;19924;-71
2022/03/11 02:48:07;;;;;;;;;;;13.90;49.60;;;;;;5093649;28;19924;-70
2022/03/11 02:50:34;;;;;;;;;;;13.90;49.60;;;;;;5093998;28;19931;-70
2022/03/11 02:53:00;;;;;;;;;;;13.90;49.50;;;;;;5094340;28;19924;-70
2022/03/11 02:55:27;;;;;;;;;;;13.90;49.50;;;;;;5094306;28;19924;-70
2022/03/11 02:57:55;;;;;;;;;;;13.90;49.50;;;;;;5076065;28;19928;-70
2022/03/11 03:00:22;;;;;;;;;;;13.90;49.50;;;;;;5093752;28;19931;-70
2022/03/11 03:02:48;;;;;;;;;;;14.00;50.10;;;;;;5093766;28;20273;-70
2022/03/11 03:05:15;;;;;;;;;;;14.00;49.40;;;;;;5093876;28;20295;-70
2022/03/11 03:07:42;;;;;;;;;;;14.00;49.40;;;;;;5075767;28;19978;-70
2022/03/11 03:10:10;;;;;;;;;;;14.00;49.40;;;;;;5075910;28;19924;-71
2022/03/11 03:12:37;;;;;;;;;;;14.00;49.40;;;;;;5074974;28;20044;-70
2022/03/11 03:15:05;;;;;;;;;;;14.00;49.40;;;;;;5075508;28;20023;-70
2022/03/11 03:17:32;;;;;;;;;;;14.10;49.40;;;;;;5093715;28;19934;-70
2022/03/11 03:19:58;;;;;;;;;;;14.10;49.40;;;;;;5093592;28;19924;-71
2022/03/11 03:22:25;;;;;;;;;;;14.00;49.30;;;;;;5075376;28;19924;-70
2022/03/11 03:24:51;;;;;;;;;;;14.10;49.30;;;;;;5075363;28;19942;-71
2022/03/11 03:27:18;;;;;;;;;;;14.00;49.30;;;;;;5075601;28;19931;-70
2022/03/11 03:29:45;;;;;;;;;;;14.10;49.30;;;;;;5074980;28;19975;-70
2022/03/11 03:32:13;;;;;;;;;;;14.30;49.40;;;;;;5075126;28;19924;-70
2022/03/11 03:34:39;;;;;;;;;;;14.10;49.30;;;;;;5093258;28;19931;-70
2022/03/11 03:37:07;;;;;;;;;;;14.10;49.20;;;;;;5093341;28;19950;-69
2022/03/11 03:39:33;;;;;;;;;;;14.10;49.20;;;;;;5093493;28;19954;-70
2022/03/11 03:42:00;;;;;;;;;;;14.10;49.30;;;;;;5093441;28;20486;-70
2022/03/11 03:44:26;;;;;;;;;;;14.10;49.20;;;;;;5074872;28;19931;-70
2022/03/11 03:46:53;;;;;;;;;;;14.10;49.20;;;;;;5092951;28;19924;-70
2022/03/11 03:49:21;;;;;;;;;;;14.10;49.20;;;;;;5075084;28;19946;-71
2022/03/11 03:51:48;;;;;;;;;;;14.10;49.80;;;;;;5075125;28;20003;-70
2022/03/11 03:54:16;;;;;;;;;;;14.10;49.20;;;;;;5058048;28;20007;-69
2022/03/11 03:56:43;;;;;;;;;;;14.10;49.20;;;;;;5092730;28;20403;-70
2022/03/11 03:59:10;;;;;;;;;;;14.10;49.20;;;;;;5075003;28;19930;-70
2022/03/11 04:01:37;;;;;;;;;;;14.10;49.20;;;;;;5074635;28;20291;-70
2022/03/11 04:04:04;;;;;;;;;;;14.10;49.20;;;;;;5074016;28;19930;-70
2022/03/11 04:06:32;;;;;;;;;;;14.10;49.20;;;;;;5092813;28;19924;-70
2022/03/11 04:08:59;;;;;;;;;;;14.10;49.20;;;;;;5093159;28;20303;-69
2022/03/11 04:11:25;;;;;;;;;;;14.10;49.20;;;;;;5074565;28;19924;-70
2022/03/11 04:13:52;;;;;;;;;;;14.10;49.20;;;;;;5074269;28;20306;-70
2022/03/11 04:16:19;;;;;;;;;;;14.10;49.20;;;;;;5092850;28;19924;-71
2022/03/11 04:18:45;;;;;;;;;;;14.10;49.20;;;;;;5092226;28;19924;-70
2022/03/11 04:21:13;;;;;;;;;;;14.10;49.10;;;;;;5074541;28;20381;-70
2022/03/11 04:23:41;;;;;;;;;;;14.10;49.10;;;;;;5091535;28;19931;-70
2022/03/11 04:26:08;;;;;;;;;;;14.10;49.20;;;;;;5092528;28;19924;-70
2022/03/11 04:28:35;;;;;;;;;;;14.10;49.20;;;;;;5092750;28;19986;-70
2022/03/11 04:31:01;;;;;;;;;;;14.10;49.20;;;;;;5092408;28;19924;-70
2022/03/11 04:33:28;;;;;;;;;;;14.10;49.20;;;;;;5091642;28;19928;-70
2022/03/11 04:35:54;;;;;;;;;;;14.10;49.10;;;;;;5092295;28;19944;-70
2022/03/11 04:38:21;;;;;;;;;;;14.10;49.10;;;;;;5092382;28;20015;-71
2022/03/11 04:40:49;;;;;;;;;;;14.10;49.10;;;;;;5092253;28;19925;-70
2022/03/11 04:43:15;;;;;;;;;;;14.00;49.10;;;;;;5091935;28;19924;-70
2022/03/11 04:45:42;;;;;;;;;;;14.00;49.10;;;;;;5074001;28;19927;-70
2022/03/11 04:48:08;;;;;;;;;;;14.00;49.10;;;;;;5092238;28;19924;-70
2022/03/11 04:50:35;;;;;;;;;;;14.10;49.10;;;;;;5074189;28;19924;-70
2022/03/11 04:53:03;;;;;;;;;;;14.10;49.10;;;;;;5074178;28;19932;-70
2022/03/11 04:55:29;;;;;;;;;;;14.20;49.20;;;;;;5092334;28;19924;-70
2022/03/11 04:57:57;;;;;;;;;;;14.00;49.10;;;;;;5092097;28;19925;-70
2022/03/11 05:00:24;;;;;;;;;;;14.10;49.10;;;;;;5092251;28;19924;-71
2022/03/11 05:02:50;;;;;;;;;;;14.00;49.00;;;;;;5074115;28;20295;-70
2022/03/11 05:05:17;;;;;;;;;;;14.10;49.10;;;;;;5073988;28;20011;-70
2022/03/11 05:07:43;;;;;;;;;;;14.00;49.00;;;;;;5073994;28;19928;-70
2022/03/11 05:10:11;;;;;;;;;;;14.00;49.00;;;;;;5092011;28;19924;-70
2022/03/11 05:12:38;;;;;;;;;;;14.00;49.00;;;;;;5091855;28;19924;-70
2022/03/11 05:15:06;;;;;;;;;;;14.00;49.00;;;;;;5074127;28;19928;-69
2022/03/11 05:17:33;;;;;;;;;;;14.00;49.00;;;;;;5073880;28;20003;-70
2022/03/11 05:19:59;;;;;;;;;;;14.00;49.00;;;;;;5073945;28;19930;-70
2022/03/11 05:22:26;;;;;;;;;;;14.00;49.00;;;;;;5091697;28;19930;-70
2022/03/11 05:24:53;;;;;;;;;;;14.00;49.00;;;;;;5074018;28;19946;-70
2022/03/11 05:27:19;;;;;;;;;;;14.00;49.00;;;;;;5092159;28;19931;-70
2022/03/11 05:29:46;;;;;;;;;;;14.00;49.00;;;;;;5073792;28;19924;-70
2022/03/11 05:32:15;;;;;;;;;;;14.00;49.00;;;;;;5073924;28;19928;-71
2022/03/11 05:34:42;;;;;;;;;;;13.90;49.00;;;;;;5074951;28;19932;-70
2022/03/11 05:37:09;;;;;;;;;;;14.00;49.00;;;;;;5077243;28;19930;-71
2022/03/11 05:39:36;;;;;;;;;;;14.00;49.00;;;;;;5077324;28;19924;-70
2022/03/11 05:42:02;;;;;;;;;;;13.90;49.00;;;;;;5095739;28;19924;-71
2022/03/11 05:44:29;;;;;;;;;;;14.00;49.00;;;;;;5077529;28;19931;-71
2022/03/11 05:46:56;;;;;;;;;;;14.00;49.00;;;;;;5077495;28;19930;-70
2022/03/11 05:49:24;;;;;;;;;;;14.40;49.20;;;;;;5077297;28;19932;-70
2022/03/11 05:51:51;;;;;;;;;;;14.00;49.00;;;;;;5077440;28;19924;-70
2022/03/11 05:54:18;;;;;;;;;;;13.90;48.90;;;;;;5076891;28;19924;-70
2022/03/11 05:56:47;;;;;;;;;;;13.90;48.90;;;;;;5095112;28;19927;-70
2022/03/11 05:59:13;;;;;;;;;;;13.90;48.90;;;;;;5095225;28;19967;-71
2022/03/11 06:01:40;;;;;;;;;;;13.90;49.00;;;;;;5095245;28;19924;-70
2022/03/11 06:04:07;;;;;;;;;;;14.20;49.10;;;;;;5094798;28;19924;-70
2022/03/11 06:06:37;;;;;;;;;;;14.00;49.00;;;;;;5095413;28;19924;-69
2022/03/11 06:09:04;;;;;;;;;;;14.00;49.00;;;;;;5077255;28;19969;-70
2022/03/11 06:11:30;;;;;;;;;;;13.90;48.90;;;;;;5076809;28;20387;-69
2022/03/11 06:13:57;;;;;;;;;;;13.90;48.90;;;;;;5094324;28;20346;-70
2022/03/11 06:16:23;;;;;;;;;;;14.00;49.00;;;;;;5076838;28;20399;-70
2022/03/11 06:18:50;;;;;;;;;;;13.90;48.90;;;;;;5094939;28;20376;-70
2022/03/11 06:21:17;;;;;;;;;;;13.90;48.90;;;;;;5094829;28;20285;-69
2022/03/11 06:23:44;;;;;;;;;;;13.90;48.90;;;;;;5094376;28;19927;-71
2022/03/11 06:26:11;;;;;;;;;;;13.90;48.90;;;;;;5076137;28;19924;-70
2022/03/11 06:28:38;;;;;;;;;;;14.00;48.90;;;;;;5094806;28;19924;-70
2022/03/11 06:31:04;;;;;;;;;;;14.00;48.90;;;;;;5076698;28;19924;-70
2022/03/11 06:33:31;;;;;;;;;;;14.00;48.90;;;;;;5094246;28;19924;-70
2022/03/11 06:35:57;;;;;;;;;;;13.90;48.90;;;;;;5076475;28;19930;-71
2022/03/11 06:38:24;;;;;;;;;;;14.00;48.90;;;;;;5094274;28;19930;-70
2022/03/11 06:40:54;;;;;;;;;;;14.30;49.00;;;;;;5076172;28;19924;-70
2022/03/11 06:43:21;;;;;;;;;;;14.00;48.90;;;;;;5094096;28;20326;-70
2022/03/11 06:45:47;;;;;;;;;;;13.90;48.80;;;;;;5093991;28;19938;-70
2022/03/11 06:48:14;;;;;;;;;;;13.90;48.80;;;;;;5093746;28;20031;-70
2022/03/11 06:50:40;;;;;;;;;;;14.00;48.90;;;;;;5094062;28;19936;-71
2022/03/11 06:53:08;;;;;;;;;;;14.00;48.90;;;;;;5075683;28;19924;-70
2022/03/11 06:55:35;;;;;;;;;;;14.00;48.80;;;;;;5075877;28;20007;-70
2022/03/11 06:58:03;;;;;;;;;;;13.90;48.80;;;;;;5076077;28;19931;-70
2022/03/11 07:00:30;;;;;;;;;;;14.00;48.80;;;;;;5075707;28;19924;-70
2022/03/11 07:02:56;;;;;;;;;;;13.90;48.80;;;;;;5075502;28;19924;-70
2022/03/11 07:05:23;;;;;;;;;;;13.90;48.80;;;;;;5093799;28;19928;-70
2022/03/11 07:07:49;;;;;;;;;;;14.00;48.80;;;;;;5076017;28;20327;-69
2022/03/11 07:10:16;;;;;;;;;;;14.00;48.80;;;;;;5093661;28;19986;-70
2022/03/11 07:12:43;;;;;;;;;;;14.00;48.80;;;;;;5093668;28;19924;-70
2022/03/11 07:15:11;;;;;;;;;;;14.00;48.80;;;;;;5075262;28;19924;-70
2022/03/11 07:17:40;;;;;;;;;;;14.00;48.90;;;;;;5093514;28;19923;-69
2022/03/11 07:20:08;;;;;;;;;;;14.00;48.90;;;;;;5093481;28;20380;-68
2022/03/11 07:22:34;;;;;;;;;;;14.00;48.90;;;;;;5075631;28;20307;-70
2022/03/11 07:25:01;;;;;;;;;;;14.00;48.70;;;;;;5093865;28;19932;-70
2022/03/11 07:27:27;;;;;;;;;;;14.00;48.80;;;;;;5075836;28;19930;-70
2022/03/11 07:29:56;;;;;;;;;;;14.00;48.70;;;;;;5075436;28;19924;-70
2022/03/11 07:32:24;;;;;;;;;;;14.10;48.80;;;;;;5075694;28;19924;-69
2022/03/11 07:34:50;;;;;;;;;;;14.10;48.80;;;;;;5093206;28;19931;-69
2022/03/11 07:37:17;;;;;;;;;;;14.10;48.70;;;;;;5093332;28;19971;-69
2022/03/11 07:39:43;;;;;;;;;;;14.10;48.70;;;;;;5093641;28;19924;-70
2022/03/11 07:42:10;;;;;;;;;;;14.20;48.70;;;;;;5093128;28;19924;-68
2022/03/11 07:44:37;;;;;;;;;;;14.20;48.70;;;;;;5074961;28;20307;-69
2022/03/11 07:47:03;;;;;;;;;;;14.20;48.60;;;;;;5093007;28;20313;-70
2022/03/11 07:49:31;;;;;;;;;;;14.30;48.60;;;;;;5074830;28;19924;-70
2022/03/11 07:51:58;;;;;;;;;;;14.30;48.60;;;;;;5074717;28;20299;-70
2022/03/11 07:54:25;;;;;;;;;;;14.40;48.50;;;;;;5092858;28;20521;-71
2022/03/11 07:56:51;;;;;;;;;;;14.50;48.50;;;;;;5092632;28;20394;-69
2022/03/11 07:59:18;;;;;;;;;;;14.50;48.40;;;;;;5075331;28;20007;-70
2022/03/11 08:01:46;;;;;;;;;;;14.50;48.40;;;;;;5075001;28;19924;-68
2022/03/11 08:04:13;;;;;;;;;;;14.70;48.40;;;;;;5074371;28;19940;-70
2022/03/11 08:06:41;;;;;;;;;;;14.60;48.30;;;;;;5092089;28;19931;-70
2022/03/11 08:09:08;;;;;;;;;;;14.70;48.20;;;;;;5073720;28;20014;-66
2022/03/11 08:11:34;;;;;;;;;;;14.70;48.20;;;;;;5075012;28;19924;-68
2022/03/11 08:14:01;;;;;;;;;;;14.80;48.20;;;;;;5074764;28;20400;-69
2022/03/11 08:16:27;;;;;;;;;;;14.80;48.20;;;;;;5073786;28;19924;-68
2022/03/11 08:18:54;;;;;;;;;;;14.80;48.20;;;;;;5074963;28;19923;-69
2022/03/11 08:21:21;;;;;;;;;;;14.80;48.10;;;;;;5092903;28;19946;-68
2022/03/11 08:23:49;;;;;;;;;;;14.80;48.10;;;;;;5092143;28;20431;-68
2022/03/11 08:26:17;;;;;;;;;;;14.90;48.20;;;;;;5092398;28;19928;-69
2022/03/11 08:28:44;;;;;;;;;;;14.90;48.20;;;;;;5092610;28;19970;-70
2022/03/11 08:31:10;;;;;;;;;;;14.90;48.10;;;;;;5074701;28;19931;-68
2022/03/11 08:33:39;;;;;;;;;;;15.00;48.20;;;;;;5074561;28;19924;-68
2022/03/11 08:36:06;;;;;;;;;;;15.00;48.30;;;;;;5092401;28;19928;-70
2022/03/11 08:38:33;;;;;;;;;;;15.00;48.20;;;;;;5092589;28;20280;-68
2022/03/11 08:41:02;;;;;;;;;;;15.00;48.10;;;;;;5074149;28;19930;-68
2022/03/11 08:43:29;;;;;;;;;;;15.00;48.10;;;;;;5074251;28;19977;-68
2022/03/11 08:45:55;;;;;;;;;;;15.00;48.00;;;;;;5074655;28;19924;-68
2022/03/11 08:48:23;;;;;;;;;;;15.00;48.00;;;;;;5074317;28;19924;-68
2022/03/11 08:50:50;;;;;;;;;;;15.00;47.90;;;;;;5092475;28;20019;-68
2022/03/11 08:53:17;;;;;;;;;;;15.10;47.90;;;;;;5074280;28;19928;-70
2022/03/11 08:55:43;;;;;;;;;;;15.00;47.80;;;;;;5074149;28;20011;-68
2022/03/11 08:58:11;;;;;;;;;;;15.10;47.80;;;;;;5091905;28;19924;-68
2022/03/11 09:00:40;;;;;;;;;;;15.10;47.80;;;;;;5057567;28;19928;-68
2022/03/11 09:03:06;;;;;;;;;;;15.10;47.80;;;;;;5074108;28;20006;-68
2022/03/11 09:05:33;;;;;;;;;;;15.10;47.80;;;;;;5074472;28;19924;-69
2022/03/11 09:08:01;;;;;;;;;;;15.10;47.80;;;;;;5092320;28;20022;-69
2022/03/11 09:10:28;;;;;;;;;;;15.10;47.80;;;;;;5059876;28;19931;-69
2022/03/11 09:12:54;;;;;;;;;;;15.10;47.80;;;;;;5077510;28;19931;-68
2022/03/11 09:15:22;;;;;;;;;;;15.10;47.80;;;;;;5096140;28;19925;-68
2022/03/11 09:17:49;;;;;;;;;;;15.10;47.70;;;;;;5078060;28;20281;-68
2022/03/11 09:20:15;;;;;;;;;;;15.10;47.70;;;;;;5096230;28;19924;-69
2022/03/11 09:22:42;;;;;;;;;;;15.10;47.70;;;;;;5095922;28;20307;-68
2022/03/11 09:25:09;;;;;;;;;;;15.10;47.70;;;;;;5077925;28;19924;-68
2022/03/11 09:27:35;;;;;;;;;;;15.10;47.70;;;;;;5095966;28;19968;-69
2022/03/11 09:30:02;;;;;;;;;;;15.10;47.70;;;;;;5077631;28;19930;-69
2022/03/11 09:32:30;;;;;;;;;;;15.10;47.80;;;;;;5095833;28;19997;-68
2022/03/11 09:34:58;;;;;;;;;;;15.10;47.70;;;;;;5095717;28;20018;-68
2022/03/11 09:37:24;;;;;;;;;;;15.10;47.70;;;;;;5095632;28;20019;-69
2022/03/11 09:39:51;;;;;;;;;;;15.10;47.70;;;;;;5095536;28;20300;-69
2022/03/11 09:42:17;;;;;;;;;;;15.10;47.70;;;;;;5077840;28;19946;-71
2022/03/11 09:44:47;;;;;;;;;;;15.10;47.70;;;;;;5077300;28;19931;-70
2022/03/11 09:47:14;;;;;;;;;;;15.10;47.60;;;;;;5077740;28;19924;-71
2022/03/11 09:49:42;;;;;;;;;;;15.20;47.70;;;;;;5077837;28;19924;-69
2022/03/11 09:52:08;;;;;;;;;;;15.20;47.70;;;;;;5095568;28;19924;-69
2022/03/11 09:54:35;;;;;;;;;;;15.10;47.70;;;;;;5095349;28;19925;-69
2022/03/11 09:57:01;;;;;;;;;;;15.10;47.60;;;;;;5095702;28;19924;-68
2022/03/11 09:59:28;;;;;;;;;;;15.20;47.70;;;;;;5077265;28;19934;-68
2022/03/11 10:01:54;;;;;;;;;;;15.20;47.70;;;;;;5076786;28;19924;-69
2022/03/11 10:04:21;;;;;;;;;;;15.20;47.60;;;;;;5076449;28;19931;-68
2022/03/11 10:06:49;;;;;;;;;;;15.20;47.60;;;;;;5077430;28;19935;-68
2022/03/11 10:09:31;;;;;;;;;;;15.20;47.60;;;;;;5095454;28;20307;-68
2022/03/11 10:11:58;;;;;;;;;;;15.20;47.60;;;;;;5091928;28;20326;-69
2022/03/11 10:14:27;;;;;;;;;;;15.20;47.50;;;;;;5076989;28;19924;-68
2022/03/11 10:16:54;;;;;;;;;;;15.20;47.60;;;;;;5094988;28;19923;-68
2022/03/11 10:19:20;;;;;;;;;;;15.20;47.60;;;;;;5076832;28;19924;-68
2022/03/11 10:21:50;;;;;;;;;;;15.20;47.50;;;;;;5093530;28;19924;-70
2022/03/11 10:24:18;;;;;;;;;;;15.20;47.40;;;;;;5077048;28;19932;-68
2022/03/11 10:26:45;;;;;;;;;;;15.20;47.40;;;;;;5076591;28;19924;-68
2022/03/11 10:29:13;;;;;;;;;;;15.30;47.50;;;;;;5095000;28;19924;-68
2022/03/11 10:31:41;;;;;;;;;;;15.30;47.50;;;;;;5076692;28;19931;-69
2022/03/11 10:34:28;;;;;;;;;;;15.20;47.40;;;;;;5094172;28;19928;-69
2022/03/11 10:36:57;;;;;;;;;;;15.20;47.40;;;;;;5088331;28;19924;-68
2022/03/11 10:39:25;;;;;;;;;;;15.20;47.40;;;;;;5094613;28;19930;-70
2022/03/11 10:41:53;;;;;;;;;;;15.20;47.40;;;;;;5094389;28;19993;-68
2022/03/11 10:44:21;;;;;;;;;;;15.30;47.50;;;;;;5094542;28;20016;-69
2022/03/11 10:46:48;;;;;;;;;;;15.30;47.50;;;;;;5094718;28;20292;-69
2022/03/11 10:49:23;;;;;;;;;;;15.30;47.50;;;;;;5076254;28;19931;-68
2022/03/11 10:51:50;;;;;;;;;;;15.30;47.50;;;;;;5076383;28;19930;-70
2022/03/11 10:54:17;;;;;;;;;;;15.30;47.50;;;;;;5093854;28;20033;-69
2022/03/11 10:56:44;;;;;;;;;;;15.30;47.50;;;;;;5094289;28;19930;-68
2022/03/11 10:59:12;;;;;;;;;;;15.30;47.50;;;;;;5076108;28;19931;-69
2022/03/11 11:01:39;;;;;;;;;;;15.30;47.50;;;;;;5076005;28;19928;-68
2022/03/11 11:04:07;;;;;;;;;;;15.40;47.50;;;;;;5075698;28;19970;-70
2022/03/11 11:06:33;;;;;;;;;;;15.40;47.50;;;;;;5075803;28;20436;-68
2022/03/11 11:09:01;;;;;;;;;;;15.40;47.40;;;;;;5094039;28;19946;-70
2022/03/11 11:11:29;;;;;;;;;;;15.50;47.50;;;;;;5076109;28;19928;-69
2022/03/11 11:13:56;;;;;;;;;;;15.50;47.40;;;;;;5093614;28;19935;-68
2022/03/11 11:16:24;;;;;;;;;;;15.50;47.40;;;;;;5076142;28;19934;-70
2022/03/11 11:18:51;;;;;;;;;;;15.60;47.40;;;;;;5075803;28;20303;-68
2022/03/11 11:21:18;;;;;;;;;;;15.60;47.30;;;;;;5075681;28;19928;-69
2022/03/11 11:23:44;;;;;;;;;;;15.60;47.30;;;;;;5075243;28;19924;-70
2022/03/11 11:26:11;;;;;;;;;;;15.60;47.20;;;;;;5093118;28;19924;-69
2022/03/11 11:28:39;;;;;;;;;;;15.60;47.20;;;;;;5092820;28;19935;-68
2022/03/11 11:31:06;;;;;;;;;;;15.70;47.20;;;;;;5092563;28;20364;-69
2022/03/11 11:33:32;;;;;;;;;;;15.70;47.10;;;;;;5091207;28;20380;-68
2022/03/11 11:36:01;;;;;;;;;;;15.70;47.10;;;;;;5074854;28;20302;-69
2022/03/11 11:38:32;;;;;;;;;;;15.80;47.10;;;;;;5092814;28;19954;-68
2022/03/11 11:41:00;;;;;;;;;;;15.80;47.10;;;;;;5090711;28;19924;-68
2022/03/11 11:43:27;;;;;;;;;;;15.80;47.00;;;;;;5074749;28;19930;-68
2022/03/11 11:45:56;;;;;;;;;;;15.80;47.00;;;;;;5092463;28;20027;-68
2022/03/11 11:48:42;;;;;;;;;;;15.80;46.90;;;;;;5093264;28;19924;-68
2022/03/11 11:51:09;;;;;;;;;;;15.90;47.00;;;;;;5074900;28;19931;-71
2022/03/11 11:53:36;;;;;;;;;;;15.90;46.90;;;;;;5074940;28;19924;-68
2022/03/11 11:56:11;;;;;;;;;;;15.90;46.90;;;;;;5075041;28;19942;-68
2022/03/11 11:58:46;;;;;;;;;;;15.90;46.90;;;;;;5092638;28;20339;-68
2022/03/11 12:01:14;;;;;;;;;;;15.90;46.90;;;;;;5074692;28;19931;-68
2022/03/11 12:03:48;;;;;;;;;;;16.00;46.90;;;;;;5073311;28;19924;-68
2022/03/11 12:06:29;;;;;;;;;;;15.90;46.80;;;;;;5073466;28;19931;-68
2022/03/11 12:08:56;;;;;;;;;;;16.00;46.90;;;;;;5073883;28;19924;-68
2022/03/11 12:11:39;;;;;;;;;;;16.00;46.80;;;;;;5074545;28;20376;-68
2022/03/11 12:14:06;;;;;;;;;;;15.40;46.50;;;;;;5073669;28;19924;-69
2022/03/11 12:16:47;;;;;;;;;;;16.00;46.80;;;;;;5092353;28;20026;-69
2022/03/11 12:19:29;;;;;;;;;;;15.90;46.80;;;;;;5074224;28;19931;-69
2022/03/11 12:21:57;;;;;;;;;;;15.90;46.70;;;;;;5070636;28;20049;-71
2022/03/11 12:24:31;;;;;;;;;;;15.90;46.70;;;;;;5092201;28;19924;-71
2022/03/11 12:26:57;;;;;;;;;;;15.90;46.60;;;;;;5074435;28;20304;-72
2022/03/11 12:29:28;;;;;;;;;;;15.90;46.60;;;;;;5074268;28;20411;-71
2022/03/11 12:31:55;;;;;;;;;;;15.90;46.80;;;;;;5074431;28;19924;-71
2022/03/11 12:34:23;;;;;;;;;;;15.90;46.90;;;;;;5074380;28;20363;-71
2022/03/11 12:36:49;;;;;;;;;;;15.90;47.00;;;;;;5074895;28;20368;-72
2022/03/11 12:39:19;;;;;;;;;;;15.90;47.00;;;;;;5092957;28;20015;-71
2022/03/11 12:41:45;;;;;;;;;;;15.90;47.30;;;;;;5092563;28;19924;-72
2022/03/11 12:44:12;;;;;;;;;;;15.90;47.10;;;;;;5091169;28;19978;-72
2022/03/11 12:46:39;;;;;;;;;;;15.90;47.10;;;;;;5091976;28;19930;-70
2022/03/11 12:49:05;;;;;;;;;;;15.90;47.10;;;;;;5074395;28;19924;-69
2022/03/11 12:51:32;;;;;;;;;;;15.90;47.10;;;;;;5091893;28;20713;-69
2022/03/11 12:53:58;;;;;;;;;;;15.90;47.20;;;;;;5091713;28;19924;-70
2022/03/11 12:56:26;;;;;;;;;;;15.90;47.10;;;;;;5091520;28;19946;-72
2022/03/11 12:58:53;;;;;;;;;;;15.90;47.10;;;;;;5073675;28;19931;-69
2022/03/11 13:01:20;;;;;;;;;;;15.90;47.20;;;;;;5074069;28;20364;-70
2022/03/11 13:03:49;;;;;;;;;;;15.90;47.20;;;;;;5091289;28;20368;-70
2022/03/11 13:06:16;;;;;;;;;;;15.90;47.20;;;;;;5091513;28;19931;-70
2022/03/11 13:08:43;;;;;;;;;;;15.90;47.20;;;;;;5074148;28;19932;-69
2022/03/11 13:11:12;;;;;;;;;;;15.90;47.30;;;;;;5089436;28;20307;-71
2022/03/11 13:13:39;;;;;;;;;;;15.90;47.30;;;;;;5091207;28;19928;-70
2022/03/11 13:16:06;;;;;;;;;;;15.90;47.30;;;;;;5074215;28;19924;-70
2022/03/11 13:18:33;;;;;;;;;;;15.90;47.40;;;;;;5092239;28;19930;-69
2022/03/11 13:21:00;;;;;;;;;;;15.90;47.50;;;;;;5074282;28;19924;-70
2022/03/11 13:23:27;;;;;;;;;;;15.90;47.50;;;;;;5091116;28;19924;-69
2022/03/11 13:25:54;;;;;;;;;;;15.90;47.60;;;;;;5092588;28;20386;-69
2022/03/11 13:28:22;;;;;;;;;;;15.90;47.60;;;;;;5074252;28;19966;-70
2022/03/11 13:30:50;;;;;;;;;;;15.90;47.70;;;;;;5074160;28;19928;-69
2022/03/11 13:33:18;;;;;;;;;;;15.90;47.80;;;;;;5073982;28;19932;-71
2022/03/11 13:35:45;;;;;;;;;;;15.90;47.80;;;;;;5073951;28;20406;-69
2022/03/11 13:38:11;;;;;;;;;;;15.90;47.80;;;;;;5090953;28;20303;-69
2022/03/11 13:40:38;;;;;;;;;;;15.90;47.80;;;;;;5092019;28;20007;-69
2022/03/11 13:43:05;;;;;;;;;;;15.90;47.70;;;;;;5073790;28;20011;-69
2022/03/11 13:45:32;;;;;;;;;;;16.00;47.70;;;;;;5091786;28;19931;-69
2022/03/11 13:48:03;;;;;;;;;;;15.90;47.60;;;;;;5091474;28;20406;-69
2022/03/11 13:50:30;;;;;;;;;;;15.90;47.50;;;;;;5074077;28;19924;-69
2022/03/11 13:52:57;;;;;;;;;;;15.90;47.50;;;;;;5091423;28;19928;-67
2022/03/11 13:55:31;;;;;;;;;;;15.90;47.50;;;;;;5091844;28;19924;-69
2022/03/11 13:58:12;;;;;;;;;;;15.90;47.50;;;;;;5095289;28;19928;-71
2022/03/11 14:00:38;;;;;;;;;;;15.90;47.40;;;;;;5095720;28;19928;-70
2022/03/11 14:03:13;;;;;;;;;;;15.90;47.50;;;;;;5094763;28;19924;-70
2022/03/11 14:05:40;;;;;;;;;;;16.00;47.50;;;;;;5095341;28;20311;-71
2022/03/11 14:08:07;;;;;;;;;;;16.00;47.50;;;;;;5095155;28;19932;-68
2022/03/11 14:10:35;;;;;;;;;;;16.00;47.50;;;;;;5077290;28;19931;-70
2022/03/11 14:13:02;;;;;;;;;;;16.00;47.40;;;;;;5076275;28;19924;-70
2022/03/11 14:15:30;;;;;;;;;;;16.00;47.50;;;;;;5094206;28;19935;-71
2022/03/11 14:17:57;;;;;;;;;;;16.00;47.60;;;;;;5075776;28;19924;-71